Marion, Oregon
Current Conditions -  °F | °C
As of 5:56 PM on Monday 20 Oct 2014 (Local Time) from KSLE Reporting Station
Overcast Overcast  
Wind Chill: 61°   Ceiling: 4200
Heat Index: 61°   Visibility: 10mi
Dew Point: 54°   Wind: 6mph
Humidity: 78%   Direction: 240°WSW
Pressure: 29.81"   Gusts: NA
Location:  44.75°N, 122.94°W
Report Text: KSLE 210056Z 24005KT 10SM FEW018 BKN042 OVC055 16/12 A2981 RMK AO2 RAE04 SLP094 P0000 T01610122
Loading
Personal Weather Stations






























Interactive Weather Map
Tropical Storm Tracking
New forecast layout! Learn more

10-Day Weather Forecast

Advertisements
Track Severe Weather on mobile